Time;durP1;ratioP1;P1;durP2;ratioP2;P2;SDS_P1;SDS_P2;PMS_P1;PMS_P2;Temp;Humidity;BMP_temperature;BMP_pressure;BME280_temperature;BME280_humidity;BME280_pressure;Samples;Min_cycle;Max_cycle;Signal;HPM_P1;HPM_P2
2021/08/10 00:01:15;;;;;;;11.93;11.03;;;;;;;27.40;45.23;94626.20;827310;71;32253;-78
2021/08/10 00:16:13;;;;;;;11.17;10.27;;;;;;;27.69;45.31;94651.66;835315;71;31622;-78
2021/08/10 00:31:16;;;;;;;12.33;11.20;;;;;;;27.59;45.44;94664.03;828265;71;29159;-77
2021/08/10 00:46:30;;;;;;;12.23;11.10;;;;;;;27.50;45.82;94651.58;829026;71;29253;-75
2021/08/10 01:01:32;;;;;;;11.57;10.57;;;;;;;23.90;45.55;94113.83;829254;71;31785;-75
2021/08/10 01:16:26;;;;;;;11.60;10.60;;;;;;;;;;834156;71;32386;-76
2021/08/10 01:31:17;;;;;;;11.50;10.60;;;;;;;27.38;45.85;165891.20;828428;71;28773;-75
2021/08/10 01:46:26;;;;;;;11.10;10.20;;;;;;;27.25;46.28;94638.98;834934;71;29045;-77
2021/08/10 02:01:19;;;;;;;11.73;10.83;;;;;;;27.21;46.12;94638.20;828360;71;28378;-77
2021/08/10 02:16:17;;;;;;;12.30;11.30;;;;;;;;;;834001;71;28868;-76
2021/08/10 02:31:21;;;;;;;12.13;11.13;;;;;;;27.13;47.46;94654.17;827488;71;31757;-74
2021/08/10 02:46:19;;;;;;;11.43;10.50;;;;;;;27.12;46.46;94661.50;827476;71;32318;-75
2021/08/10 03:16:33;;;;;;;12.20;11.20;;;;;;;26.73;47.16;94667.00;827380;71;31750;-76
2021/08/10 03:31:22;;;;;;;12.97;11.77;;;;;;;26.78;47.08;94685.44;828431;71;28534;-76
2021/08/10 03:46:19;;;;;;;12.40;11.07;;;;;;;26.76;47.18;94681.02;828312;71;28631;-74
2021/08/10 04:01:24;;;;;;;12.07;11.10;;;;;;;;;;833839;71;32347;-76
2021/08/10 04:16:14;;;;;;;12.17;11.27;;;;;;;;;;828259;71;29215;-76
2021/08/10 04:31:18;;;;;;;12.00;10.90;;;;;;;28.40;43.69;94682.05;827552;71;31877;-74
2021/08/10 04:46:15;;;;;;;15.00;13.47;;;;;;;27.22;47.23;94709.02;834010;71;32325;-75
2021/08/10 05:01:22;;;;;;;70.67;57.10;;;;;;;27.02;47.94;94715.42;828263;71;28896;-75
2021/08/10 05:16:35;;;;;;;12.13;11.03;;;;;;;27.65;46.09;94725.83;828250;71;28891;-77
2021/08/10 05:31:24;;;;;;;12.50;11.40;;;;;;;28.52;43.82;94720.73;827578;71;31859;-77
2021/08/10 05:46:22;;;;;;;16.70;14.40;;;;;;;28.62;44.00;94705.03;829349;70;31806;-76
2021/08/10 06:01:15;;;;;;;13.97;12.60;;;;;;;28.33;44.62;94718.73;828043;71;28259;-78
2021/08/10 06:16:12;;;;;;;16.40;14.80;;;;;;;28.82;43.63;94731.50;833704;71;27846;-78
2021/08/10 06:31:14;;;;;;;15.17;13.57;;;;;;;29.52;41.56;94725.77;833777;71;30568;-74
2021/08/10 06:46:29;;;;;;;15.00;13.60;;;;;;;30.08;40.13;94721.42;833787;71;32894;-76
2021/08/10 07:01:23;;;;;;;16.40;14.70;;;;;;;31.15;38.16;94713.56;834508;71;29344;-76
2021/08/10 07:16:18;;;;;;;14.63;13.40;;;;;;;31.78;36.98;94714.09;834436;71;30236;-76
2021/08/10 07:31:16;;;;;;;19.43;13.23;;;;;;;32.80;34.70;94701.91;828605;71;28689;-77
2021/08/10 07:32:20;;;;;;;14.43;12.97;;;;;;;32.77;34.60;94697.91;808713;72;25961;-75
2021/08/10 07:46:19;;;;;;;13.87;12.77;;;;;;;33.29;33.57;94692.89;828452;71;31800;-78
2021/08/10 08:01:40;;;;;;;12.93;11.83;;;;;;;33.60;32.78;94694.57;834231;71;31938;-79
2021/08/10 08:16:15;;;;;;;14.20;13.10;;;;;;;34.28;31.95;94687.13;834230;71;31761;-79
2021/08/10 08:31:23;;;;;;;15.63;14.27;;;;;;;34.41;31.38;94686.35;834208;71;30438;-77
2021/08/10 08:46:20;;;;;;;13.67;12.40;;;;;;;34.82;30.99;94667.70;828654;71;29044;-78
2021/08/10 09:16:13;;;;;;;11.40;10.40;;;;;;;36.26;29.00;94646.14;829074;71;29294;-76
2021/08/10 09:31:48;;;;;;;10.80;9.80;;;;;;;36.81;26.57;94631.80;833804;70;31813;-77
2021/08/10 09:46:25;;;;;;;9.70;8.90;;;;;;;37.43;25.76;94609.55;829332;71;30939;-77
2021/08/10 10:01:36;;;;;;;9.30;8.60;;;;;;;38.01;24.61;94610.41;828858;71;31738;-77
2021/08/10 10:16:13;;;;;;;16.10;14.80;;;;;;;38.14;24.91;94602.60;829174;71;28954;-79
2021/08/10 10:31:11;;;;;;;9.83;9.13;;;;;;;38.46;24.61;94594.17;834517;71;29106;-82
2021/08/10 10:32:17;;;;;;;9.53;8.83;;;;;;;38.34;24.39;94581.46;822181;72;26898;-79
2021/08/10 10:46:35;;;;;;;8.37;7.73;;;;;;;38.06;24.83;94570.07;828630;71;32215;-78
2021/08/10 11:16:38;;;;;;;9.47;8.63;;;;;;;38.80;24.16;94550.33;834151;71;28812;-77
2021/08/10 13:31:20;;;;;;;6.30;5.70;;;;;;;36.82;23.38;94474.06;828186;71;32077;-77
2021/08/10 13:46:26;;;;;;;7.60;6.87;;;;;;;36.69;22.86;94472.09;833714;71;29715;-77
2021/08/10 14:01:19;;;;;;;6.60;6.10;;;;;;;36.08;22.68;94468.59;823048;70;30925;-77
2021/08/10 14:16:17;;;;;;;5.67;5.30;;;;;;;35.86;22.36;94465.99;827261;71;32681;-76
2021/08/10 14:31:13;;;;;;;7.23;6.53;;;;;;;35.75;24.32;94462.17;828152;71;32583;-79
2021/08/10 14:46:14;;;;;;;6.50;5.90;;;;;;;35.49;24.14;94463.16;834328;71;32635;-77
2021/08/10 15:16:14;;;;;;;8.67;7.97;;;;;;;34.89;26.25;94435.63;828242;71;32756;-76
2021/08/10 15:31:11;;;;;;;7.40;6.47;;;;;;;34.56;27.30;94438.62;828117;71;30156;-73
2021/08/10 15:46:09;;;;;;;7.50;7.00;;;;;;;34.23;29.81;94428.87;833666;71;29817;-74
2021/08/10 16:01:14;;;;;;;7.40;6.80;;;;;;;33.91;29.74;94432.67;827322;71;32644;-76
2021/08/10 16:16:09;;;;;;;7.77;7.17;;;;;;;33.51;30.61;94448.14;828066;71;30867;-75
2021/08/10 16:31:09;;;;;;;7.67;7.07;;;;;;;33.07;29.90;94454.14;824970;71;29784;-74
2021/08/10 16:46:10;;;;;;;8.53;7.73;;;;;;;32.67;30.33;94474.16;828093;71;30226;-76
2021/08/10 17:01:15;;;;;;;8.03;7.23;;;;;;;32.24;31.25;94481.49;819099;71;32827;-79
2021/08/10 17:16:10;;;;;;;8.10;7.40;;;;;;;31.85;32.12;94490.60;820319;71;29937;-77
2021/08/10 17:31:14;;;;;;;10.60;9.80;;;;;;;31.48;36.49;94508.33;821195;71;32833;-75
2021/08/10 17:46:08;;;;;;;10.30;9.30;;;;;;;31.09;38.64;94517.31;820228;71;30336;-79
2021/08/10 18:01:08;;;;;;;14.90;13.50;;;;;;;30.74;36.78;94531.75;828569;71;29745;-78
2021/08/10 18:16:09;;;;;;;9.60;8.77;;;;;;;30.49;36.56;94541.69;828273;71;29712;-76
2021/08/10 18:31:08;;;;;;;9.60;8.53;;;;;;;30.25;36.10;94549.84;833804;71;29728;-77
2021/08/10 21:16:09;;;;;;;10.63;9.70;;;;;;;28.60;42.62;94505.42;828014;71;30355;-76
2021/08/10 21:31:08;;;;;;;11.70;10.70;;;;;;;28.51;42.94;94512.66;829368;71;29641;-78
2021/08/10 21:46:16;;;;;;;11.60;10.60;;;;;;;28.46;43.04;94528.67;827425;71;32689;-75
2021/08/10 22:01:15;;;;;;;11.53;10.53;;;;;;;28.47;43.26;94530.22;827227;71;32697;-78
2021/08/10 22:16:15;;;;;;;11.17;10.27;;;;;;;28.37;43.59;94541.89;827918;71;30620;-78
2021/08/10 22:31:07;;;;;;;11.63;10.73;;;;;;;;;;834012;71;29802;-78
2021/08/10 22:46:09;;;;;;;11.13;10.20;;;;;;;28.07;44.02;94547.95;828039;71;31443;-75
2021/08/10 23:01:09;;;;;;;9.73;8.93;;;;;;;27.93;43.87;94513.77;828073;71;31342;-78
2021/08/10 23:16:15;;;;;;;10.03;9.13;;;;;;;27.88;44.21;94507.45;827375;71;32786;-77
2021/08/10 23:31:15;;;;;;;9.70;8.90;;;;;;;27.91;43.81;94489.89;827399;71;32703;-78
2021/08/10 23:46:19;;;;;;;10.30;9.40;;;;;;;27.98;43.64;94490.39;835079;71;32810;-77
